sensor_id;sensor_type;location;lat;lon;timestamp;P1;durP1;ratioP1;P2;durP2;ratioP2
3036;SDS011;1528;52.550;13.408;2022-12-10T00:01:22;26.20;;;24.33;;
3036;SDS011;1528;52.550;13.408;2022-12-10T00:04:10;29.30;;;27.30;;
3036;SDS011;1528;52.550;13.408;2022-12-10T00:06:57;27.17;;;25.20;;
3036;SDS011;1528;52.550;13.408;2022-12-10T00:09:43;24.57;;;22.63;;
3036;SDS011;1528;52.550;13.408;2022-12-10T00:12:28;24.93;;;23.03;;
3036;SDS011;1528;52.550;13.408;2022-12-10T00:15:14;27.20;;;25.07;;
3036;SDS011;1528;52.550;13.408;2022-12-10T00:18:00;25.50;;;23.60;;
3036;SDS011;1528;52.550;13.408;2022-12-10T00:20:47;27.57;;;25.53;;
3036;SDS011;1528;52.550;13.408;2022-12-10T00:23:32;27.97;;;25.97;;
3036;SDS011;1528;52.550;13.408;2022-12-10T00:26:19;29.27;;;27.17;;
3036;SDS011;1528;52.550;13.408;2022-12-10T00:29:07;28.20;;;26.00;;
3036;SDS011;1528;52.550;13.408;2022-12-10T00:31:54;26.17;;;24.20;;
3036;SDS011;1528;52.550;13.408;2022-12-10T00:34:39;26.37;;;24.33;;
3036;SDS011;1528;52.550;13.408;2022-12-10T00:37:26;27.80;;;25.80;;
3036;SDS011;1528;52.550;13.408;2022-12-10T00:40:12;29.30;;;27.40;;
3036;SDS011;1528;52.550;13.408;2022-12-10T00:42:57;26.70;;;24.90;;
3036;SDS011;1528;52.550;13.408;2022-12-10T00:45:43;28.70;;;26.90;;
3036;SDS011;1528;52.550;13.408;2022-12-10T00:48:28;28.80;;;26.73;;
3036;SDS011;1528;52.550;13.408;2022-12-10T00:51:15;26.33;;;24.53;;
3036;SDS011;1528;52.550;13.408;2022-12-10T00:54:03;23.83;;;22.13;;
3036;SDS011;1528;52.550;13.408;2022-12-10T00:56:48;27.87;;;25.87;;
3036;SDS011;1528;52.550;13.408;2022-12-10T00:59:34;26.33;;;24.13;;
3036;SDS011;1528;52.550;13.408;2022-12-10T01:02:19;30.10;;;27.90;;
3036;SDS011;1528;52.550;13.408;2022-12-10T01:05:05;27.73;;;25.83;;
3036;SDS011;1528;52.550;13.408;2022-12-10T01:07:51;26.50;;;24.53;;
3036;SDS011;1528;52.550;13.408;2022-12-10T01:10:38;25.90;;;23.90;;
3036;SDS011;1528;52.550;13.408;2022-12-10T01:13:23;26.83;;;24.77;;
3036;SDS011;1528;52.550;13.408;2022-12-10T01:16:10;26.33;;;24.43;;
3036;SDS011;1528;52.550;13.408;2022-12-10T01:18:57;28.87;;;26.83;;
3036;SDS011;1528;52.550;13.408;2022-12-10T01:21:43;24.10;;;22.20;;
3036;SDS011;1528;52.550;13.408;2022-12-10T01:24:29;24.57;;;22.50;;
3036;SDS011;1528;52.550;13.408;2022-12-10T01:27:16;22.87;;;21.03;;
3036;SDS011;1528;52.550;13.408;2022-12-10T01:30:02;24.20;;;22.50;;
3036;SDS011;1528;52.550;13.408;2022-12-10T01:32:48;26.00;;;24.00;;
3036;SDS011;1528;52.550;13.408;2022-12-10T01:35:35;25.10;;;23.40;;
3036;SDS011;1528;52.550;13.408;2022-12-10T01:38:21;24.77;;;23.00;;
3036;SDS011;1528;52.550;13.408;2022-12-10T01:41:07;24.50;;;22.60;;
3036;SDS011;1528;52.550;13.408;2022-12-10T01:44:00;25.13;;;23.23;;
3036;SDS011;1528;52.550;13.408;2022-12-10T01:46:47;23.77;;;22.17;;
3036;SDS011;1528;52.550;13.408;2022-12-10T01:49:35;25.80;;;24.00;;
3036;SDS011;1528;52.550;13.408;2022-12-10T01:52:21;22.20;;;20.80;;
3036;SDS011;1528;52.550;13.408;2022-12-10T01:55:08;29.73;;;27.80;;
3036;SDS011;1528;52.550;13.408;2022-12-10T01:58:24;28.07;;;26.00;;
3036;SDS011;1528;52.550;13.408;2022-12-10T02:01:13;28.10;;;26.03;;
3036;SDS011;1528;52.550;13.408;2022-12-10T02:04:04;26.90;;;25.10;;
3036;SDS011;1528;52.550;13.408;2022-12-10T02:06:57;25.30;;;23.67;;
3036;SDS011;1528;52.550;13.408;2022-12-10T02:09:47;25.33;;;23.60;;
3036;SDS011;1528;52.550;13.408;2022-12-10T02:12:42;22.57;;;21.07;;
3036;SDS011;1528;52.550;13.408;2022-12-10T02:15:32;26.30;;;24.30;;
3036;SDS011;1528;52.550;13.408;2022-12-10T02:18:25;23.40;;;21.80;;
3036;SDS011;1528;52.550;13.408;2022-12-10T02:21:16;27.57;;;25.77;;
3036;SDS011;1528;52.550;13.408;2022-12-10T02:24:05;24.17;;;22.43;;
3036;SDS011;1528;52.550;13.408;2022-12-10T02:26:56;26.20;;;24.60;;
3036;SDS011;1528;52.550;13.408;2022-12-10T02:29:49;26.47;;;24.87;;
3036;SDS011;1528;52.550;13.408;2022-12-10T02:32:37;29.97;;;27.80;;
3036;SDS011;1528;52.550;13.408;2022-12-10T02:35:26;23.53;;;22.03;;
3036;SDS011;1528;52.550;13.408;2022-12-10T02:38:15;26.83;;;25.10;;
3036;SDS011;1528;52.550;13.408;2022-12-10T02:41:08;26.27;;;24.60;;
3036;SDS011;1528;52.550;13.408;2022-12-10T02:43:59;26.83;;;24.93;;
3036;SDS011;1528;52.550;13.408;2022-12-10T02:46:52;27.53;;;25.53;;
3036;SDS011;1528;52.550;13.408;2022-12-10T02:49:41;27.83;;;25.93;;
3036;SDS011;1528;52.550;13.408;2022-12-10T02:52:30;29.93;;;27.77;;
3036;SDS011;1528;52.550;13.408;2022-12-10T02:55:16;27.13;;;25.23;;
3036;SDS011;1528;52.550;13.408;2022-12-10T02:58:06;26.60;;;24.73;;
3036;SDS011;1528;52.550;13.408;2022-12-10T03:01:01;26.53;;;24.63;;
3036;SDS011;1528;52.550;13.408;2022-12-10T03:03:54;26.43;;;24.40;;
3036;SDS011;1528;52.550;13.408;2022-12-10T03:06:46;27.03;;;24.87;;
3036;SDS011;1528;52.550;13.408;2022-12-10T03:09:38;24.73;;;22.93;;
3036;SDS011;1528;52.550;13.408;2022-12-10T03:12:29;27.17;;;24.77;;
3036;SDS011;1528;52.550;13.408;2022-12-10T03:15:20;29.17;;;27.00;;
3036;SDS011;1528;52.550;13.408;2022-12-10T03:18:07;27.40;;;25.23;;
3036;SDS011;1528;52.550;13.408;2022-12-10T03:20:57;28.93;;;26.90;;
3036;SDS011;1528;52.550;13.408;2022-12-10T03:23:47;24.70;;;22.30;;
3036;SDS011;1528;52.550;13.408;2022-12-10T03:26:33;29.87;;;27.50;;
3036;SDS011;1528;52.550;13.408;2022-12-10T03:29:21;26.50;;;24.23;;
3036;SDS011;1528;52.550;13.408;2022-12-10T03:32:09;26.53;;;24.33;;
3036;SDS011;1528;52.550;13.408;2022-12-10T03:34:56;27.00;;;24.80;;
3036;SDS011;1528;52.550;13.408;2022-12-10T03:37:44;30.47;;;28.20;;
3036;SDS011;1528;52.550;13.408;2022-12-10T03:40:31;26.60;;;24.60;;
3036;SDS011;1528;52.550;13.408;2022-12-10T03:43:16;28.70;;;26.50;;
3036;SDS011;1528;52.550;13.408;2022-12-10T03:46:02;26.70;;;24.83;;
3036;SDS011;1528;52.550;13.408;2022-12-10T03:48:47;25.80;;;23.77;;
3036;SDS011;1528;52.550;13.408;2022-12-10T03:51:33;26.03;;;24.10;;
3036;SDS011;1528;52.550;13.408;2022-12-10T03:54:20;26.77;;;24.80;;
3036;SDS011;1528;52.550;13.408;2022-12-10T03:57:06;27.93;;;25.73;;
3036;SDS011;1528;52.550;13.408;2022-12-10T03:59:52;25.20;;;23.30;;
3036;SDS011;1528;52.550;13.408;2022-12-10T04:02:38;36.17;;;32.73;;
3036;SDS011;1528;52.550;13.408;2022-12-10T04:05:23;37.60;;;33.53;;
3036;SDS011;1528;52.550;13.408;2022-12-10T04:08:09;33.03;;;30.10;;
3036;SDS011;1528;52.550;13.408;2022-12-10T04:11:00;28.07;;;25.73;;
3036;SDS011;1528;52.550;13.408;2022-12-10T04:13:46;32.87;;;30.60;;
3036;SDS011;1528;52.550;13.408;2022-12-10T04:16:50;27.40;;;25.10;;
3036;SDS011;1528;52.550;13.408;2022-12-10T04:19:35;26.10;;;24.00;;
3036;SDS011;1528;52.550;13.408;2022-12-10T04:22:21;26.83;;;24.83;;
3036;SDS011;1528;52.550;13.408;2022-12-10T04:25:24;26.43;;;24.43;;
3036;SDS011;1528;52.550;13.408;2022-12-10T04:28:29;24.90;;;23.20;;
3036;SDS011;1528;52.550;13.408;2022-12-10T04:31:14;28.93;;;26.97;;
3036;SDS011;1528;52.550;13.408;2022-12-10T04:33:59;28.77;;;26.70;;
3036;SDS011;1528;52.550;13.408;2022-12-10T04:36:45;27.60;;;25.70;;
3036;SDS011;1528;52.550;13.408;2022-12-10T04:39:31;24.87;;;23.07;;
3036;SDS011;1528;52.550;13.408;2022-12-10T04:42:17;27.60;;;25.80;;
3036;SDS011;1528;52.550;13.408;2022-12-10T04:45:04;26.73;;;24.73;;
3036;SDS011;1528;52.550;13.408;2022-12-10T04:47:51;26.30;;;24.30;;
3036;SDS011;1528;52.550;13.408;2022-12-10T04:50:36;24.17;;;22.57;;
3036;SDS011;1528;52.550;13.408;2022-12-10T04:53:22;26.33;;;24.43;;
3036;SDS011;1528;52.550;13.408;2022-12-10T04:56:07;25.60;;;23.70;;
3036;SDS011;1528;52.550;13.408;2022-12-10T04:58:54;24.33;;;22.43;;
3036;SDS011;1528;52.550;13.408;2022-12-10T05:01:42;25.83;;;23.83;;
3036;SDS011;1528;52.550;13.408;2022-12-10T05:04:27;23.70;;;21.80;;
3036;SDS011;1528;52.550;13.408;2022-12-10T05:07:12;27.63;;;25.63;;
3036;SDS011;1528;52.550;13.408;2022-12-10T05:09:58;25.20;;;23.50;;
3036;SDS011;1528;52.550;13.408;2022-12-10T05:12:43;24.63;;;22.87;;
3036;SDS011;1528;52.550;13.408;2022-12-10T05:15:29;28.07;;;25.83;;
3036;SDS011;1528;52.550;13.408;2022-12-10T05:18:16;27.60;;;25.70;;
3036;SDS011;1528;52.550;13.408;2022-12-10T05:21:02;27.13;;;25.33;;
3036;SDS011;1528;52.550;13.408;2022-12-10T05:23:49;27.80;;;25.50;;
3036;SDS011;1528;52.550;13.408;2022-12-10T05:26:35;28.33;;;26.33;;
3036;SDS011;1528;52.550;13.408;2022-12-10T05:29:20;25.73;;;23.83;;
3036;SDS011;1528;52.550;13.408;2022-12-10T05:32:06;25.83;;;23.93;;
3036;SDS011;1528;52.550;13.408;2022-12-10T05:34:53;25.10;;;23.60;;
3036;SDS011;1528;52.550;13.408;2022-12-10T05:37:38;23.90;;;22.30;;
3036;SDS011;1528;52.550;13.408;2022-12-10T05:40:24;24.10;;;22.60;;
3036;SDS011;1528;52.550;13.408;2022-12-10T05:43:09;25.57;;;23.77;;
3036;SDS011;1528;52.550;13.408;2022-12-10T05:45:58;22.93;;;21.17;;
3036;SDS011;1528;52.550;13.408;2022-12-10T05:48:44;25.30;;;23.63;;
3036;SDS011;1528;52.550;13.408;2022-12-10T05:51:33;24.67;;;23.00;;
3036;SDS011;1528;52.550;13.408;2022-12-10T05:54:20;25.67;;;23.77;;
3036;SDS011;1528;52.550;13.408;2022-12-10T05:57:06;24.30;;;22.90;;
3036;SDS011;1528;52.550;13.408;2022-12-10T05:59:52;22.67;;;21.13;;
3036;SDS011;1528;52.550;13.408;2022-12-10T06:02:37;26.80;;;25.00;;
3036;SDS011;1528;52.550;13.408;2022-12-10T06:05:23;23.83;;;22.30;;
3036;SDS011;1528;52.550;13.408;2022-12-10T06:08:10;25.23;;;23.73;;
3036;SDS011;1528;52.550;13.408;2022-12-10T06:10:55;24.87;;;23.27;;
3036;SDS011;1528;52.550;13.408;2022-12-10T06:13:41;22.73;;;21.23;;
3036;SDS011;1528;52.550;13.408;2022-12-10T06:16:27;21.17;;;19.77;;
3036;SDS011;1528;52.550;13.408;2022-12-10T06:19:13;21.97;;;20.47;;
3036;SDS011;1528;52.550;13.408;2022-12-10T06:21:58;20.80;;;19.53;;
3036;SDS011;1528;52.550;13.408;2022-12-10T06:24:46;26.57;;;24.67;;
3036;SDS011;1528;52.550;13.408;2022-12-10T06:27:31;24.37;;;22.77;;
3036;SDS011;1528;52.550;13.408;2022-12-10T06:30:17;24.53;;;22.93;;
3036;SDS011;1528;52.550;13.408;2022-12-10T06:33:02;23.80;;;22.20;;
3036;SDS011;1528;52.550;13.408;2022-12-10T06:35:49;21.27;;;19.93;;
3036;SDS011;1528;52.550;13.408;2022-12-10T06:38:35;21.27;;;19.97;;
3036;SDS011;1528;52.550;13.408;2022-12-10T06:41:22;21.50;;;20.10;;
3036;SDS011;1528;52.550;13.408;2022-12-10T06:44:08;22.40;;;20.90;;
3036;SDS011;1528;52.550;13.408;2022-12-10T06:46:53;22.23;;;20.83;;
3036;SDS011;1528;52.550;13.408;2022-12-10T06:49:39;22.00;;;20.60;;
3036;SDS011;1528;52.550;13.408;2022-12-10T06:52:24;25.53;;;23.83;;
3036;SDS011;1528;52.550;13.408;2022-12-10T06:55:10;22.77;;;21.13;;
3036;SDS011;1528;52.550;13.408;2022-12-10T06:57:56;24.63;;;23.23;;
3036;SDS011;1528;52.550;13.408;2022-12-10T07:00:42;22.30;;;21.00;;
3036;SDS011;1528;52.550;13.408;2022-12-10T07:03:28;24.77;;;22.97;;
3036;SDS011;1528;52.550;13.408;2022-12-10T07:06:13;23.67;;;22.20;;
3036;SDS011;1528;52.550;13.408;2022-12-10T07:08:59;21.17;;;19.90;;
3036;SDS011;1528;52.550;13.408;2022-12-10T07:11:44;23.90;;;22.40;;
3036;SDS011;1528;52.550;13.408;2022-12-10T07:14:31;23.00;;;21.40;;
3036;SDS011;1528;52.550;13.408;2022-12-10T07:17:17;22.70;;;21.50;;
3036;SDS011;1528;52.550;13.408;2022-12-10T07:20:02;23.57;;;22.27;;
3036;SDS011;1528;52.550;13.408;2022-12-10T07:22:49;21.90;;;20.50;;
3036;SDS011;1528;52.550;13.408;2022-12-10T07:25:34;24.20;;;22.70;;
3036;SDS011;1528;52.550;13.408;2022-12-10T07:28:20;21.87;;;20.47;;
3036;SDS011;1528;52.550;13.408;2022-12-10T07:31:07;22.43;;;21.07;;
3036;SDS011;1528;52.550;13.408;2022-12-10T07:33:54;20.80;;;19.40;;
3036;SDS011;1528;52.550;13.408;2022-12-10T07:36:41;20.07;;;18.77;;
3036;SDS011;1528;52.550;13.408;2022-12-10T07:39:26;24.00;;;22.50;;
3036;SDS011;1528;52.550;13.408;2022-12-10T07:42:12;20.17;;;18.67;;
3036;SDS011;1528;52.550;13.408;2022-12-10T07:44:57;23.57;;;21.97;;
3036;SDS011;1528;52.550;13.408;2022-12-10T07:47:44;21.03;;;19.83;;
3036;SDS011;1528;52.550;13.408;2022-12-10T07:50:30;20.40;;;19.10;;
3036;SDS011;1528;52.550;13.408;2022-12-10T07:53:16;20.30;;;18.97;;
3036;SDS011;1528;52.550;13.408;2022-12-10T07:56:01;21.70;;;20.30;;
3036;SDS011;1528;52.550;13.408;2022-12-10T07:58:47;21.73;;;20.33;;
3036;SDS011;1528;52.550;13.408;2022-12-10T08:01:33;24.80;;;23.40;;
3036;SDS011;1528;52.550;13.408;2022-12-10T08:04:20;22.57;;;21.37;;
3036;SDS011;1528;52.550;13.408;2022-12-10T08:07:05;23.17;;;21.67;;
3036;SDS011;1528;52.550;13.408;2022-12-10T08:09:51;20.33;;;19.03;;
3036;SDS011;1528;52.550;13.408;2022-12-10T08:12:37;22.83;;;21.33;;
3036;SDS011;1528;52.550;13.408;2022-12-10T08:15:22;22.10;;;20.80;;
3036;SDS011;1528;52.550;13.408;2022-12-10T08:18:08;24.63;;;23.03;;
3036;SDS011;1528;52.550;13.408;2022-12-10T08:20:55;23.00;;;21.60;;
3036;SDS011;1528;52.550;13.408;2022-12-10T08:23:40;20.23;;;19.03;;
3036;SDS011;1528;52.550;13.408;2022-12-10T08:26:27;22.90;;;21.33;;
3036;SDS011;1528;52.550;13.408;2022-12-10T08:29:14;22.60;;;21.10;;
3036;SDS011;1528;52.550;13.408;2022-12-10T08:31:59;22.00;;;20.50;;
3036;SDS011;1528;52.550;13.408;2022-12-10T08:34:45;23.30;;;21.70;;
3036;SDS011;1528;52.550;13.408;2022-12-10T08:37:32;21.53;;;20.17;;
3036;SDS011;1528;52.550;13.408;2022-12-10T08:40:17;22.83;;;21.53;;
3036;SDS011;1528;52.550;13.408;2022-12-10T08:43:03;21.60;;;20.40;;
3036;SDS011;1528;52.550;13.408;2022-12-10T08:45:49;21.93;;;20.53;;
3036;SDS011;1528;52.550;13.408;2022-12-10T08:48:34;21.77;;;20.27;;
3036;SDS011;1528;52.550;13.408;2022-12-10T08:51:20;23.53;;;22.03;;
3036;SDS011;1528;52.550;13.408;2022-12-10T08:54:08;23.90;;;22.47;;
3036;SDS011;1528;52.550;13.408;2022-12-10T08:56:53;24.33;;;22.87;;
3036;SDS011;1528;52.550;13.408;2022-12-10T08:59:38;21.93;;;20.53;;
3036;SDS011;1528;52.550;13.408;2022-12-10T09:02:24;20.97;;;19.73;;
3036;SDS011;1528;52.550;13.408;2022-12-10T09:05:09;23.10;;;21.70;;
3036;SDS011;1528;52.550;13.408;2022-12-10T09:07:55;23.33;;;21.93;;
3036;SDS011;1528;52.550;13.408;2022-12-10T09:10:42;24.87;;;23.37;;
3036;SDS011;1528;52.550;13.408;2022-12-10T09:13:28;23.57;;;22.17;;
3036;SDS011;1528;52.550;13.408;2022-12-10T09:16:13;24.17;;;22.80;;
3036;SDS011;1528;52.550;13.408;2022-12-10T09:18:59;25.47;;;23.83;;
3036;SDS011;1528;52.550;13.408;2022-12-10T09:21:45;25.37;;;23.87;;
3036;SDS011;1528;52.550;13.408;2022-12-10T09:24:31;27.50;;;25.67;;
3036;SDS011;1528;52.550;13.408;2022-12-10T09:27:18;24.20;;;22.70;;
3036;SDS011;1528;52.550;13.408;2022-12-10T09:30:04;25.27;;;23.57;;
3036;SDS011;1528;52.550;13.408;2022-12-10T09:32:51;22.23;;;20.93;;
3036;SDS011;1528;52.550;13.408;2022-12-10T09:35:39;24.47;;;22.90;;
3036;SDS011;1528;52.550;13.408;2022-12-10T09:38:26;25.77;;;24.17;;
3036;SDS011;1528;52.550;13.408;2022-12-10T09:41:16;25.77;;;24.00;;
3036;SDS011;1528;52.550;13.408;2022-12-10T09:44:23;24.23;;;22.63;;
3036;SDS011;1528;52.550;13.408;2022-12-10T09:47:16;23.47;;;22.03;;
3036;SDS011;1528;52.550;13.408;2022-12-10T09:50:02;25.97;;;24.47;;
3036;SDS011;1528;52.550;13.408;2022-12-10T09:52:56;25.03;;;23.33;;
3036;SDS011;1528;52.550;13.408;2022-12-10T09:55:45;24.10;;;22.50;;
3036;SDS011;1528;52.550;13.408;2022-12-10T09:58:32;26.20;;;24.70;;
3036;SDS011;1528;52.550;13.408;2022-12-10T10:01:23;23.27;;;21.67;;
3036;SDS011;1528;52.550;13.408;2022-12-10T10:04:12;23.50;;;22.00;;
3036;SDS011;1528;52.550;13.408;2022-12-10T10:06:58;23.00;;;21.50;;
3036;SDS011;1528;52.550;13.408;2022-12-10T10:09:44;22.20;;;20.90;;
3036;SDS011;1528;52.550;13.408;2022-12-10T10:12:30;24.67;;;23.17;;
3036;SDS011;1528;52.550;13.408;2022-12-10T10:15:18;24.70;;;23.10;;
3036;SDS011;1528;52.550;13.408;2022-12-10T10:18:11;25.03;;;23.60;;
3036;SDS011;1528;52.550;13.408;2022-12-10T10:21:01;24.80;;;23.30;;
3036;SDS011;1528;52.550;13.408;2022-12-10T10:23:48;22.70;;;21.20;;
3036;SDS011;1528;52.550;13.408;2022-12-10T10:26:34;25.03;;;23.63;;
3036;SDS011;1528;52.550;13.408;2022-12-10T10:29:20;25.40;;;24.10;;
3036;SDS011;1528;52.550;13.408;2022-12-10T10:32:11;24.10;;;22.30;;
3036;SDS011;1528;52.550;13.408;2022-12-10T10:35:01;25.30;;;23.80;;
3036;SDS011;1528;52.550;13.408;2022-12-10T10:37:48;29.47;;;27.73;;
3036;SDS011;1528;52.550;13.408;2022-12-10T10:40:39;28.83;;;27.03;;
3036;SDS011;1528;52.550;13.408;2022-12-10T10:43:27;27.37;;;25.63;;
3036;SDS011;1528;52.550;13.408;2022-12-10T10:46:16;27.80;;;25.90;;
3036;SDS011;1528;52.550;13.408;2022-12-10T10:49:13;26.70;;;24.90;;
3036;SDS011;1528;52.550;13.408;2022-12-10T10:52:12;25.10;;;23.23;;
3036;SDS011;1528;52.550;13.408;2022-12-10T10:55:00;26.57;;;24.97;;
3036;SDS011;1528;52.550;13.408;2022-12-10T10:57:45;31.55;;;29.17;;
3036;SDS011;1528;52.550;13.408;2022-12-10T11:00:31;27.37;;;25.67;;
3036;SDS011;1528;52.550;13.408;2022-12-10T11:03:17;24.90;;;23.40;;
3036;SDS011;1528;52.550;13.408;2022-12-10T11:06:05;26.70;;;25.10;;
3036;SDS011;1528;52.550;13.408;2022-12-10T11:08:55;24.83;;;23.17;;
3036;SDS011;1528;52.550;13.408;2022-12-10T11:11:42;25.57;;;23.80;;
3036;SDS011;1528;52.550;13.408;2022-12-10T11:14:39;25.23;;;23.57;;
3036;SDS011;1528;52.550;13.408;2022-12-10T11:17:26;25.33;;;23.80;;
3036;SDS011;1528;52.550;13.408;2022-12-10T11:20:15;27.50;;;25.47;;
3036;SDS011;1528;52.550;13.408;2022-12-10T11:23:08;24.50;;;23.03;;
3036;SDS011;1528;52.550;13.408;2022-12-10T11:25:57;26.10;;;24.50;;
3036;SDS011;1528;52.550;13.408;2022-12-10T11:28:56;23.83;;;22.43;;
3036;SDS011;1528;52.550;13.408;2022-12-10T11:31:53;24.60;;;23.03;;
3036;SDS011;1528;52.550;13.408;2022-12-10T11:34:50;24.90;;;23.50;;
3036;SDS011;1528;52.550;13.408;2022-12-10T11:37:48;26.83;;;25.10;;
3036;SDS011;1528;52.550;13.408;2022-12-10T11:40:42;26.93;;;25.20;;
3036;SDS011;1528;52.550;13.408;2022-12-10T11:43:42;26.53;;;24.93;;
3036;SDS011;1528;52.550;13.408;2022-12-10T11:49:53;22.40;;;21.00;;
3036;SDS011;1528;52.550;13.408;2022-12-10T11:52:49;24.33;;;22.70;;
3036;SDS011;1528;52.550;13.408;2022-12-10T11:55:49;22.93;;;21.43;;
3036;SDS011;1528;52.550;13.408;2022-12-10T11:58:48;22.13;;;20.73;;
3036;SDS011;1528;52.550;13.408;2022-12-10T12:01:54;22.40;;;21.13;;
3036;SDS011;1528;52.550;13.408;2022-12-10T12:04:52;24.90;;;23.33;;
3036;SDS011;1528;52.550;13.408;2022-12-10T12:08:06;27.47;;;25.77;;
3036;SDS011;1528;52.550;13.408;2022-12-10T12:11:03;23.20;;;21.77;;
3036;SDS011;1528;52.550;13.408;2022-12-10T12:14:01;25.77;;;23.97;;
3036;SDS011;1528;52.550;13.408;2022-12-10T12:16:55;23.33;;;22.03;;
3036;SDS011;1528;52.550;13.408;2022-12-10T12:19:50;23.00;;;21.50;;
3036;SDS011;1528;52.550;13.408;2022-12-10T12:22:39;24.13;;;22.63;;
3036;SDS011;1528;52.550;13.408;2022-12-10T12:25:30;25.53;;;23.93;;
3036;SDS011;1528;52.550;13.408;2022-12-10T12:28:20;23.67;;;22.07;;
3036;SDS011;1528;52.550;13.408;2022-12-10T12:31:13;24.83;;;23.33;;
3036;SDS011;1528;52.550;13.408;2022-12-10T12:34:05;25.77;;;24.10;;
3036;SDS011;1528;52.550;13.408;2022-12-10T12:36:58;26.47;;;24.87;;
3036;SDS011;1528;52.550;13.408;2022-12-10T12:39:46;24.33;;;22.90;;
3036;SDS011;1528;52.550;13.408;2022-12-10T12:42:40;26.63;;;24.97;;
3036;SDS011;1528;52.550;13.408;2022-12-10T12:45:32;25.50;;;23.83;;
3036;SDS011;1528;52.550;13.408;2022-12-10T12:48:24;24.80;;;23.30;;
3036;SDS011;1528;52.550;13.408;2022-12-10T12:51:16;29.20;;;27.40;;
3036;SDS011;1528;52.550;13.408;2022-12-10T12:54:04;25.20;;;23.40;;
3036;SDS011;1528;52.550;13.408;2022-12-10T12:56:54;25.77;;;24.23;;
3036;SDS011;1528;52.550;13.408;2022-12-10T12:59:50;25.87;;;24.13;;
3036;SDS011;1528;52.550;13.408;2022-12-10T13:02:44;24.17;;;22.50;;
3036;SDS011;1528;52.550;13.408;2022-12-10T13:05:40;24.90;;;23.40;;
3036;SDS011;1528;52.550;13.408;2022-12-10T13:08:30;32.88;;;30.77;;
3036;SDS011;1528;52.550;13.408;2022-12-10T13:11:18;29.10;;;27.10;;
3036;SDS011;1528;52.550;13.408;2022-12-10T13:14:15;27.20;;;25.40;;
3036;SDS011;1528;52.550;13.408;2022-12-10T13:17:25;29.43;;;27.53;;
3036;SDS011;1528;52.550;13.408;2022-12-10T13:20:29;26.83;;;25.13;;
3036;SDS011;1528;52.550;13.408;2022-12-10T13:23:29;28.77;;;26.88;;
3036;SDS011;1528;52.550;13.408;2022-12-10T13:26:24;28.63;;;26.63;;
3036;SDS011;1528;52.550;13.408;2022-12-10T13:29:12;28.90;;;26.90;;
3036;SDS011;1528;52.550;13.408;2022-12-10T13:32:13;29.23;;;27.10;;
3036;SDS011;1528;52.550;13.408;2022-12-10T13:35:16;26.67;;;24.87;;
3036;SDS011;1528;52.550;13.408;2022-12-10T13:38:18;26.70;;;24.97;;
3036;SDS011;1528;52.550;13.408;2022-12-10T13:41:08;25.80;;;24.10;;
3036;SDS011;1528;52.550;13.408;2022-12-10T13:47:24;25.50;;;23.60;;
3036;SDS011;1528;52.550;13.408;2022-12-10T13:50:16;26.80;;;24.33;;
3036;SDS011;1528;52.550;13.408;2022-12-10T13:53:07;26.03;;;24.17;;
3036;SDS011;1528;52.550;13.408;2022-12-10T13:56:02;24.40;;;22.67;;
3036;SDS011;1528;52.550;13.408;2022-12-10T13:58:56;25.60;;;23.50;;
3036;SDS011;1528;52.550;13.408;2022-12-10T14:01:56;27.17;;;25.00;;
3036;SDS011;1528;52.550;13.408;2022-12-10T14:05:09;27.70;;;25.40;;
3036;SDS011;1528;52.550;13.408;2022-12-10T14:08:04;27.27;;;25.25;;
3036;SDS011;1528;52.550;13.408;2022-12-10T14:10:53;28.33;;;25.93;;
3036;SDS011;1528;52.550;13.408;2022-12-10T14:13:42;27.10;;;25.20;;
3036;SDS011;1528;52.550;13.408;2022-12-10T14:16:35;26.80;;;24.50;;
3036;SDS011;1528;52.550;13.408;2022-12-10T14:19:24;26.90;;;24.80;;
3036;SDS011;1528;52.550;13.408;2022-12-10T14:22:13;29.57;;;27.27;;
3036;SDS011;1528;52.550;13.408;2022-12-10T14:25:03;29.03;;;26.70;;
3036;SDS011;1528;52.550;13.408;2022-12-10T14:27:52;29.70;;;27.20;;
3036;SDS011;1528;52.550;13.408;2022-12-10T14:30:40;32.80;;;30.30;;
3036;SDS011;1528;52.550;13.408;2022-12-10T14:33:29;31.50;;;29.10;;
3036;SDS011;1528;52.550;13.408;2022-12-10T14:36:16;29.60;;;27.27;;
3036;SDS011;1528;52.550;13.408;2022-12-10T14:39:10;26.57;;;24.43;;
3036;SDS011;1528;52.550;13.408;2022-12-10T14:41:59;27.87;;;25.67;;
3036;SDS011;1528;52.550;13.408;2022-12-10T14:44:46;28.33;;;26.27;;
3036;SDS011;1528;52.550;13.408;2022-12-10T14:47:38;28.90;;;26.60;;
3036;SDS011;1528;52.550;13.408;2022-12-10T14:50:25;28.10;;;25.70;;
3036;SDS011;1528;52.550;13.408;2022-12-10T14:53:13;36.35;;;33.47;;
3036;SDS011;1528;52.550;13.408;2022-12-10T14:56:01;29.13;;;26.50;;
3036;SDS011;1528;52.550;13.408;2022-12-10T14:58:50;27.63;;;25.83;;
3036;SDS011;1528;52.550;13.408;2022-12-10T15:01:40;28.93;;;26.67;;
3036;SDS011;1528;52.550;13.408;2022-12-10T15:04:37;28.10;;;25.80;;
3036;SDS011;1528;52.550;13.408;2022-12-10T15:07:30;31.40;;;28.93;;
3036;SDS011;1528;52.550;13.408;2022-12-10T15:10:22;29.80;;;26.90;;
3036;SDS011;1528;52.550;13.408;2022-12-10T15:13:14;34.60;;;31.88;;
3036;SDS011;1528;52.550;13.408;2022-12-10T15:16:03;30.20;;;27.30;;
3036;SDS011;1528;52.550;13.408;2022-12-10T15:18:49;31.40;;;28.70;;
3036;SDS011;1528;52.550;13.408;2022-12-10T15:21:40;31.67;;;28.83;;
3036;SDS011;1528;52.550;13.408;2022-12-10T15:24:35;34.08;;;31.02;;
3036;SDS011;1528;52.550;13.408;2022-12-10T15:27:23;39.03;;;35.63;;
3036;SDS011;1528;52.550;13.408;2022-12-10T15:30:21;38.00;;;34.40;;
3036;SDS011;1528;52.550;13.408;2022-12-10T15:33:18;34.37;;;31.40;;
3036;SDS011;1528;52.550;13.408;2022-12-10T15:36:20;31.67;;;28.87;;
3036;SDS011;1528;52.550;13.408;2022-12-10T15:39:12;31.13;;;28.23;;
3036;SDS011;1528;52.550;13.408;2022-12-10T15:42:06;38.25;;;34.53;;
3036;SDS011;1528;52.550;13.408;2022-12-10T15:44:54;32.10;;;28.60;;
3036;SDS011;1528;52.550;13.408;2022-12-10T15:47:43;35.73;;;32.50;;
3036;SDS011;1528;52.550;13.408;2022-12-10T15:50:28;33.70;;;30.60;;
3036;SDS011;1528;52.550;13.408;2022-12-10T15:53:14;31.77;;;28.87;;
3036;SDS011;1528;52.550;13.408;2022-12-10T15:56:06;32.80;;;29.60;;
3036;SDS011;1528;52.550;13.408;2022-12-10T15:58:53;35.60;;;32.40;;
3036;SDS011;1528;52.550;13.408;2022-12-10T16:01:38;31.17;;;28.60;;
3036;SDS011;1528;52.550;13.408;2022-12-10T16:04:24;31.63;;;28.37;;
3036;SDS011;1528;52.550;13.408;2022-12-10T16:07:09;33.30;;;30.13;;
3036;SDS011;1528;52.550;13.408;2022-12-10T16:09:55;30.87;;;28.17;;
3036;SDS011;1528;52.550;13.408;2022-12-10T16:12:40;33.10;;;29.63;;
3036;SDS011;1528;52.550;13.408;2022-12-10T16:15:29;33.37;;;30.33;;
3036;SDS011;1528;52.550;13.408;2022-12-10T16:18:19;34.90;;;28.67;;
3036;SDS011;1528;52.550;13.408;2022-12-10T16:21:06;35.00;;;31.40;;
3036;SDS011;1528;52.550;13.408;2022-12-10T16:23:52;33.80;;;30.10;;
3036;SDS011;1528;52.550;13.408;2022-12-10T16:26:37;35.33;;;31.97;;
3036;SDS011;1528;52.550;13.408;2022-12-10T16:29:23;34.60;;;31.23;;
3036;SDS011;1528;52.550;13.408;2022-12-10T16:32:10;36.37;;;32.30;;
3036;SDS011;1528;52.550;13.408;2022-12-10T16:34:56;39.93;;;35.80;;
3036;SDS011;1528;52.550;13.408;2022-12-10T16:37:42;34.43;;;30.77;;
3036;SDS011;1528;52.550;13.408;2022-12-10T16:40:28;34.77;;;31.47;;
3036;SDS011;1528;52.550;13.408;2022-12-10T16:43:14;37.70;;;31.37;;
3036;SDS011;1528;52.550;13.408;2022-12-10T16:46:01;36.20;;;30.87;;
3036;SDS011;1528;52.550;13.408;2022-12-10T16:48:47;38.10;;;31.90;;